createdAt,value
2022-10-01T00:02:09.393Z,16.20
2022-10-01T00:04:39.513Z,16.20
2022-10-01T00:07:10.263Z,16.20
2022-10-01T00:09:37.241Z,16.10
2022-10-01T00:12:03.986Z,16.10
2022-10-01T00:14:33.084Z,16.00
2022-10-01T00:17:05.162Z,16.00
2022-10-01T00:19:31.868Z,15.90
2022-10-01T00:22:00.399Z,15.90
2022-10-01T00:24:29.579Z,15.80
2022-10-01T00:26:56.457Z,15.80
2022-10-01T00:29:23.081Z,15.80
2022-10-01T00:31:55.397Z,15.70
2022-10-01T00:34:22.078Z,15.60
2022-10-01T00:36:55.771Z,15.60
2022-10-01T00:39:29.531Z,15.50
2022-10-01T00:41:56.116Z,15.50
2022-10-01T00:44:36.284Z,15.50
2022-10-01T00:47:25.079Z,15.40
2022-10-01T00:49:59.320Z,15.40
2022-10-01T00:52:31.983Z,15.40
2022-10-01T00:55:07.570Z,15.30
2022-10-01T00:57:34.870Z,15.30
2022-10-01T01:00:04.516Z,15.30
2022-10-01T01:02:33.628Z,15.30
2022-10-01T01:05:01.311Z,15.20
2022-10-01T01:07:35.600Z,15.20
2022-10-01T01:10:09.807Z,15.20
2022-10-01T01:12:56.785Z,15.20
2022-10-01T01:16:02.367Z,15.20
2022-10-01T01:18:36.448Z,15.20
2022-10-01T01:21:21.001Z,15.20
2022-10-01T01:23:53.533Z,15.10
2022-10-01T01:26:51.412Z,15.10
2022-10-01T01:29:39.312Z,15.10
2022-10-01T01:32:14.951Z,15.10
2022-10-01T01:34:52.488Z,15.10
2022-10-01T01:37:23.969Z,15.10
2022-10-01T01:39:53.342Z,15.10
2022-10-01T01:42:27.017Z,15.00
2022-10-01T01:44:59.786Z,15.10
2022-10-01T01:47:32.781Z,15.00
2022-10-01T01:50:03.714Z,15.00
2022-10-01T01:52:32.814Z,15.10
2022-10-01T01:54:59.695Z,15.00
2022-10-01T01:57:26.642Z,15.00
2022-10-01T01:59:55.469Z,15.00
2022-10-01T02:02:26.714Z,15.00
2022-10-01T02:05:02.274Z,15.00
2022-10-01T02:07:56.042Z,15.00
2022-10-01T02:10:41.195Z,15.00
2022-10-01T02:13:23.977Z,14.90
2022-10-01T02:16:09.720Z,14.90
2022-10-01T02:19:11.885Z,14.90
2022-10-01T02:21:40.854Z,14.80
2022-10-01T02:24:19.158Z,14.80
2022-10-01T02:26:50.634Z,14.80
2022-10-01T02:29:20.752Z,14.70
2022-10-01T02:31:55.252Z,14.70
2022-10-01T02:34:24.860Z,14.70
2022-10-01T02:36:53.325Z,14.70
2022-10-01T02:39:29.523Z,14.70
2022-10-01T02:41:59.173Z,14.70
2022-10-01T02:44:32.305Z,14.70
2022-10-01T02:47:16.757Z,14.70
2022-10-01T02:49:43.906Z,14.70
2022-10-01T02:52:40.555Z,14.70
2022-10-01T02:55:33.569Z,14.70
2022-10-01T02:58:00.246Z,14.70
2022-10-01T03:00:29.149Z,14.70
2022-10-01T03:02:55.838Z,14.60
2022-10-01T03:05:27.409Z,14.70
2022-10-01T03:08:01.618Z,14.70
2022-10-01T03:10:30.620Z,14.70
2022-10-01T03:12:58.058Z,14.60
2022-10-01T03:15:36.200Z,14.70
2022-10-01T03:18:04.102Z,14.70
2022-10-01T03:20:30.777Z,14.70
2022-10-01T03:22:59.576Z,14.60
2022-10-01T03:25:30.674Z,14.70
2022-10-01T03:28:00.286Z,14.70
2022-10-01T03:30:26.971Z,14.70
2022-10-01T03:32:57.100Z,14.70
2022-10-01T03:35:24.833Z,14.70
2022-10-01T03:37:51.435Z,14.70
2022-10-01T03:40:18.150Z,14.70
2022-10-01T03:42:44.783Z,14.70
2022-10-01T03:45:14.214Z,14.70
2022-10-01T03:47:43.777Z,14.80
2022-10-01T03:50:10.719Z,14.80
2022-10-01T03:52:39.461Z,14.80
2022-10-01T03:55:06.561Z,14.80
2022-10-01T03:57:33.229Z,14.80
2022-10-01T04:00:07.597Z,14.80
2022-10-01T04:02:40.416Z,14.80
2022-10-01T04:05:08.103Z,14.90
2022-10-01T04:07:34.717Z,14.90
2022-10-01T04:10:01.465Z,14.90
2022-10-01T04:12:28.232Z,14.90
2022-10-01T04:14:54.813Z,14.90
2022-10-01T04:17:22.093Z,14.90
2022-10-01T04:19:51.122Z,15.00
2022-10-01T04:22:20.221Z,15.00
2022-10-01T04:24:48.665Z,14.90
2022-10-01T04:27:17.736Z,15.00
2022-10-01T04:29:59.112Z,15.10
2022-10-01T04:32:25.723Z,15.10
2022-10-01T04:34:52.697Z,15.10
2022-10-01T04:37:24.385Z,15.10
2022-10-01T04:39:51.077Z,15.10
2022-10-01T04:42:23.366Z,15.20
2022-10-01T04:44:51.074Z,15.20
2022-10-01T04:47:17.740Z,15.20
2022-10-01T04:49:46.384Z,15.10
2022-10-01T04:52:13.536Z,15.20
2022-10-01T04:54:42.282Z,15.10
2022-10-01T04:57:08.866Z,15.10
2022-10-01T04:59:37.858Z,15.10
2022-10-01T05:02:04.521Z,15.20
2022-10-01T05:04:31.170Z,15.20
2022-10-01T05:06:57.784Z,15.20
2022-10-01T05:09:24.702Z,15.20
2022-10-01T05:11:51.936Z,15.20
2022-10-01T05:14:21.076Z,15.20
2022-10-01T05:16:49.752Z,15.20
2022-10-01T05:19:19.353Z,15.30
2022-10-01T05:21:48.431Z,15.20
2022-10-01T05:24:17.560Z,15.20
2022-10-01T05:26:52.613Z,15.30
2022-10-01T05:29:22.607Z,15.20
2022-10-01T05:31:49.297Z,15.30
2022-10-01T05:34:18.733Z,15.20
2022-10-01T05:36:45.490Z,15.20
2022-10-01T05:39:14.362Z,15.20
2022-10-01T05:41:41.007Z,15.30
2022-10-01T05:44:07.878Z,15.30
2022-10-01T05:46:34.528Z,15.30
2022-10-01T05:49:01.348Z,15.30
2022-10-01T05:51:31.045Z,15.30
2022-10-01T05:54:00.354Z,15.30
2022-10-01T05:56:32.305Z,15.40
2022-10-01T05:58:59.417Z,15.40
2022-10-01T06:01:26.076Z,15.40
2022-10-01T06:03:53.143Z,15.40
2022-10-01T06:06:28.998Z,15.50
2022-10-01T06:08:55.694Z,15.50
2022-10-01T06:11:24.110Z,15.50
2022-10-01T06:13:51.213Z,15.50
2022-10-01T06:16:17.941Z,15.50
2022-10-01T06:18:44.572Z,15.60
2022-10-01T06:21:11.177Z,15.60
2022-10-01T06:23:37.794Z,15.60
2022-10-01T06:26:06.980Z,15.70
2022-10-01T06:28:33.626Z,15.70
2022-10-01T06:31:03.568Z,15.70
2022-10-01T06:33:30.480Z,15.70
2022-10-01T06:35:57.137Z,15.80
2022-10-01T06:38:24.866Z,15.80
2022-10-01T06:40:53.489Z,15.80
2022-10-01T06:43:20.544Z,15.80
2022-10-01T06:45:47.321Z,15.80
2022-10-01T06:48:15.888Z,15.90
2022-10-01T06:50:44.243Z,15.90
2022-10-01T06:53:12.017Z,15.90
2022-10-01T06:55:39.003Z,15.90
2022-10-01T06:58:12.888Z,15.90
2022-10-01T07:00:39.724Z,15.90
2022-10-01T07:03:10.962Z,15.90
2022-10-01T07:05:41.028Z,15.90
2022-10-01T07:08:08.228Z,16.00
2022-10-01T07:10:36.078Z,15.90
2022-10-01T07:13:13.686Z,15.90
2022-10-01T07:15:43.795Z,15.90
2022-10-01T07:18:11.206Z,15.90
2022-10-01T07:20:42.064Z,15.90
2022-10-01T07:23:11.973Z,15.90
2022-10-01T07:25:39.746Z,15.90
2022-10-01T07:28:08.066Z,15.90
2022-10-01T07:30:34.944Z,16.00
2022-10-01T07:33:01.587Z,16.00
2022-10-01T07:35:29.519Z,16.00
2022-10-01T07:37:56.165Z,16.00
2022-10-01T07:40:25.800Z,16.00
2022-10-01T07:42:56.407Z,16.10
2022-10-01T07:45:23.980Z,16.10
2022-10-01T07:48:02.456Z,16.20
2022-10-01T07:50:30.454Z,16.30
2022-10-01T07:52:58.384Z,16.30
2022-10-01T07:55:28.829Z,16.40
2022-10-01T07:58:03.624Z,16.40
2022-10-01T08:00:33.728Z,16.50
2022-10-01T08:03:04.844Z,16.60
2022-10-01T08:05:34.306Z,16.70
2022-10-01T08:08:03.503Z,16.80
2022-10-01T08:10:30.686Z,16.90
2022-10-01T08:13:02.083Z,17.00
2022-10-01T08:15:30.924Z,17.10
2022-10-01T08:18:02.109Z,17.20
2022-10-01T08:20:28.869Z,17.20
2022-10-01T08:23:06.169Z,17.30
2022-10-01T08:25:35.420Z,17.40
2022-10-01T08:28:02.800Z,17.40
2022-10-01T08:30:32.311Z,17.50
2022-10-01T08:33:07.813Z,17.50
2022-10-01T08:35:36.857Z,17.60
2022-10-01T08:38:04.973Z,17.60
2022-10-01T08:40:38.020Z,17.60
2022-10-01T08:43:07.711Z,17.50
2022-10-01T08:45:44.857Z,17.50
2022-10-01T08:48:48.195Z,17.50
2022-10-01T08:51:30.500Z,17.40
2022-10-01T08:54:15.299Z,17.40
2022-10-01T08:56:48.814Z,17.30
2022-10-01T08:59:32.783Z,17.20
2022-10-01T09:01:59.529Z,17.20
2022-10-01T09:04:35.958Z,17.10
2022-10-01T09:07:17.178Z,17.10
2022-10-01T09:09:56.132Z,17.00
2022-10-01T09:12:29.177Z,16.90
2022-10-01T09:15:02.178Z,16.90
2022-10-01T09:18:09.259Z,16.90
2022-10-01T09:20:40.748Z,17.00
2022-10-01T09:23:28.021Z,16.90
2022-10-01T09:25:57.080Z,17.00
2022-10-01T09:28:32.118Z,17.00
2022-10-01T09:31:26.425Z,17.10
2022-10-01T09:34:14.318Z,17.10
2022-10-01T09:36:52.534Z,17.20
2022-10-01T09:39:26.840Z,17.20
2022-10-01T09:41:59.660Z,17.30
2022-10-01T09:44:32.361Z,17.30
2022-10-01T09:46:59.089Z,17.30
2022-10-01T09:49:45.992Z,17.30
2022-10-01T09:52:19.447Z,17.40
2022-10-01T09:55:03.427Z,17.30
2022-10-01T09:57:40.385Z,17.40
2022-10-01T10:00:11.117Z,17.30
2022-10-01T10:02:49.222Z,17.30
2022-10-01T10:05:32.226Z,17.40
2022-10-01T10:08:12.585Z,17.40
2022-10-01T10:10:48.204Z,17.40
2022-10-01T10:13:27.093Z,17.50
2022-10-01T10:15:58.054Z,17.50
2022-10-01T10:18:34.501Z,17.60
2022-10-01T10:21:21.429Z,17.60
2022-10-01T10:23:59.050Z,17.70
2022-10-01T10:26:35.846Z,17.90
2022-10-01T10:29:05.177Z,18.00
2022-10-01T10:31:43.504Z,18.20
2022-10-01T10:34:21.369Z,18.30
2022-10-01T10:36:48.784Z,18.40
2022-10-01T10:39:24.685Z,18.50
2022-10-01T10:41:52.926Z,18.60
2022-10-01T10:44:22.794Z,18.70
2022-10-01T10:46:51.664Z,18.70
2022-10-01T10:49:31.165Z,18.80
2022-10-01T10:52:01.519Z,18.80
2022-10-01T10:54:32.565Z,18.70
2022-10-01T10:57:18.312Z,18.70
2022-10-01T10:59:56.069Z,18.70
2022-10-01T11:02:25.324Z,18.60
2022-10-01T11:04:54.837Z,18.60
2022-10-01T11:07:26.738Z,18.50
2022-10-01T11:10:06.780Z,18.50
2022-10-01T11:13:08.661Z,18.50
2022-10-01T11:15:57.457Z,18.60
2022-10-01T11:18:37.758Z,18.60
2022-10-01T11:21:25.475Z,18.60
2022-10-01T11:24:14.886Z,18.60
2022-10-01T11:26:53.499Z,18.70
2022-10-01T11:29:58.713Z,18.70
2022-10-01T11:32:36.681Z,18.70
2022-10-01T11:35:21.924Z,18.70
2022-10-01T11:38:21.071Z,18.70
2022-10-01T11:41:00.177Z,18.70
2022-10-01T11:43:51.085Z,18.70
2022-10-01T11:46:33.658Z,18.80
2022-10-01T11:49:31.897Z,18.80
2022-10-01T11:52:17.836Z,18.90
2022-10-01T11:55:28.947Z,18.90
2022-10-01T11:58:44.943Z,19.00
2022-10-01T12:01:19.511Z,19.00
2022-10-01T12:03:52.411Z,19.10
2022-10-01T12:06:34.422Z,19.10
2022-10-01T12:09:17.021Z,19.20
2022-10-01T12:11:50.581Z,19.20
2022-10-01T12:14:27.609Z,19.30
2022-10-01T12:16:59.886Z,19.40
2022-10-01T12:19:37.175Z,19.40
2022-10-01T12:22:33.566Z,19.50
2022-10-01T12:25:00.323Z,19.60
2022-10-01T12:27:53.948Z,19.70
2022-10-01T12:30:27.709Z,19.80
2022-10-01T12:33:06.142Z,19.90
2022-10-01T12:35:59.313Z,20.00
2022-10-01T12:38:25.918Z,20.10
2022-10-01T12:41:34.186Z,20.20
2022-10-01T12:44:09.527Z,20.30
2022-10-01T12:47:01.072Z,20.30
2022-10-01T12:49:41.704Z,20.40
2022-10-01T12:52:21.936Z,20.40
2022-10-01T12:55:10.157Z,20.50
2022-10-01T12:57:57.068Z,20.50
2022-10-01T13:00:26.204Z,20.60
2022-10-01T13:03:20.245Z,20.60
2022-10-01T13:06:29.715Z,20.70
2022-10-01T13:09:17.671Z,20.90
2022-10-01T13:12:17.501Z,21.00
2022-10-01T13:14:45.198Z,21.10
2022-10-01T13:17:22.469Z,21.20
2022-10-01T13:20:01.216Z,21.30
2022-10-01T13:23:04.134Z,21.30
2022-10-01T13:25:39.604Z,21.30
2022-10-01T13:28:32.094Z,21.50
2022-10-01T13:31:01.457Z,21.50
2022-10-01T13:33:31.998Z,21.50
2022-10-01T13:36:10.557Z,21.70
2022-10-01T13:38:47.844Z,22.00
2022-10-01T13:41:23.124Z,22.60
2022-10-01T13:44:36.621Z,23.40
2022-10-01T13:47:07.007Z,24.30
2022-10-01T13:49:35.763Z,25.30
2022-10-01T13:52:04.481Z,26.10
2022-10-01T13:54:46.473Z,26.90
2022-10-01T13:57:34.890Z,27.60
2022-10-01T14:00:14.977Z,28.30
2022-10-01T14:02:46.112Z,28.90
2022-10-01T14:05:22.991Z,29.50
2022-10-01T14:07:56.548Z,30.00
2022-10-01T14:10:31.873Z,30.40
2022-10-01T14:13:21.463Z,30.80
2022-10-01T14:16:00.094Z,31.10
2022-10-01T14:18:35.825Z,31.40
2022-10-01T14:21:07.909Z,31.70
2022-10-01T14:23:43.335Z,31.70
2022-10-01T14:26:17.504Z,31.40
2022-10-01T14:29:07.896Z,30.50
2022-10-01T14:31:52.976Z,29.60
2022-10-01T14:34:31.610Z,28.50
2022-10-01T14:37:01.099Z,27.50
2022-10-01T14:39:29.355Z,26.90
2022-10-01T14:41:57.708Z,26.60
2022-10-01T14:44:41.625Z,26.40
2022-10-01T14:47:19.342Z,26.10
2022-10-01T14:49:47.050Z,25.70
2022-10-01T14:52:23.776Z,25.30
2022-10-01T14:55:00.693Z,24.80
2022-10-01T14:57:58.585Z,24.60
2022-10-01T15:00:30.521Z,24.70
2022-10-01T15:03:05.986Z,25.00
2022-10-01T15:05:34.871Z,25.50
2022-10-01T15:08:23.069Z,26.00
2022-10-01T15:10:58.594Z,26.60
2022-10-01T15:13:37.917Z,27.20
2022-10-01T15:16:11.475Z,27.70
2022-10-01T15:18:58.081Z,28.10
2022-10-01T15:21:40.330Z,28.60
2022-10-01T15:24:14.674Z,29.10
2022-10-01T15:26:41.372Z,29.40
2022-10-01T15:29:17.681Z,29.80
2022-10-01T15:31:47.229Z,30.10
2022-10-01T15:34:17.658Z,30.20
2022-10-01T15:36:45.757Z,30.40
2022-10-01T15:39:29.944Z,30.50
2022-10-01T15:41:58.319Z,30.60
2022-10-01T15:44:42.533Z,30.70
2022-10-01T15:47:47.586Z,30.70
2022-10-01T15:50:23.553Z,30.50
2022-10-01T15:52:53.270Z,30.10
2022-10-01T15:55:22.315Z,29.60
2022-10-01T15:57:56.737Z,29.00
2022-10-01T16:00:26.626Z,28.30
2022-10-01T16:02:57.848Z,27.60
2022-10-01T16:05:31.489Z,26.90
2022-10-01T16:08:00.540Z,26.30
2022-10-01T16:10:37.455Z,25.70
2022-10-01T16:13:28.958Z,25.20
2022-10-01T16:16:16.807Z,24.70
2022-10-01T16:18:43.458Z,24.30
2022-10-01T16:21:11.277Z,23.90
2022-10-01T16:23:42.193Z,23.60
2022-10-01T16:26:27.278Z,23.40
2022-10-01T16:29:14.510Z,23.10
2022-10-01T16:31:45.551Z,22.90
2022-10-01T16:34:14.225Z,22.60
2022-10-01T16:36:41.036Z,22.40
2022-10-01T16:39:10.676Z,22.20
2022-10-01T16:41:37.341Z,22.00
2022-10-01T16:44:07.957Z,21.80
2022-10-01T16:46:34.861Z,21.70
2022-10-01T16:49:01.782Z,21.60
2022-10-01T16:51:28.612Z,21.50
2022-10-01T16:53:59.006Z,21.40
2022-10-01T16:56:27.318Z,21.20
2022-10-01T16:58:54.526Z,21.10
2022-10-01T17:01:21.290Z,21.00
2022-10-01T17:03:47.965Z,20.80
2022-10-01T17:06:14.566Z,20.70
2022-10-01T17:08:41.767Z,20.70
2022-10-01T17:11:12.710Z,20.60
2022-10-01T17:13:39.613Z,20.50
2022-10-01T17:16:06.544Z,20.40
2022-10-01T17:18:33.229Z,20.30
2022-10-01T17:21:03.300Z,20.20
2022-10-01T17:23:30.000Z,20.10
2022-10-01T17:25:56.607Z,20.00
2022-10-01T17:28:25.416Z,20.00
2022-10-01T17:30:52.128Z,19.90
2022-10-01T17:33:22.040Z,19.80
2022-10-01T17:35:51.919Z,19.70
2022-10-01T17:38:19.376Z,19.70
2022-10-01T17:40:46.605Z,19.60
2022-10-01T17:43:17.337Z,19.60
2022-10-01T17:45:52.256Z,19.50
2022-10-01T17:48:22.130Z,19.40
2022-10-01T17:50:57.457Z,19.40
2022-10-01T17:53:24.341Z,19.30
2022-10-01T17:55:50.921Z,19.20
2022-10-01T17:58:19.851Z,19.20
2022-10-01T18:00:48.826Z,19.10
2022-10-01T18:03:17.928Z,19.10
2022-10-01T18:05:45.365Z,19.00
2022-10-01T18:08:12.054Z,19.00
2022-10-01T18:10:44.261Z,18.90
2022-10-01T18:13:13.838Z,18.90
2022-10-01T18:15:43.025Z,18.80
2022-10-01T18:21:13.536Z,18.70
2022-10-01T18:23:43.671Z,18.70
2022-10-01T18:26:11.084Z,18.60
2022-10-01T18:28:41.858Z,18.60
2022-10-01T18:31:11.372Z,18.50
2022-10-01T18:33:46.170Z,18.50
2022-10-01T18:36:39.662Z,18.50
2022-10-01T18:39:17.281Z,18.40
2022-10-01T18:41:44.745Z,18.40
2022-10-01T18:44:20.505Z,18.30
2022-10-01T18:46:51.861Z,18.30
2022-10-01T18:49:45.858Z,18.20
2022-10-01T18:52:33.894Z,18.20
2022-10-01T18:55:25.147Z,18.20
2022-10-01T18:58:21.436Z,18.10
2022-10-01T19:01:04.337Z,18.10
2022-10-01T19:03:55.115Z,18.10
2022-10-01T19:06:27.527Z,18.00
2022-10-01T19:09:16.551Z,18.00
2022-10-01T19:11:44.429Z,18.00
2022-10-01T19:14:41.197Z,17.90
2022-10-01T19:17:20.094Z,17.90
2022-10-01T19:20:15.026Z,17.90
2022-10-01T19:23:00.800Z,17.80
2022-10-01T19:26:02.088Z,17.70
2022-10-01T19:28:46.870Z,17.60
2022-10-01T19:31:31.426Z,17.60
2022-10-01T19:34:09.636Z,17.50
2022-10-01T19:36:41.249Z,17.50
2022-10-01T19:39:20.080Z,17.40
2022-10-01T19:42:05.624Z,17.40
2022-10-01T19:44:39.723Z,17.40
2022-10-01T19:47:32.969Z,17.30
2022-10-01T19:50:06.983Z,17.30
2022-10-01T19:52:38.155Z,17.30
2022-10-01T19:55:13.599Z,17.30
2022-10-01T19:57:44.089Z,17.20
2022-10-01T20:00:21.458Z,17.20
2022-10-01T20:03:00.541Z,17.20
2022-10-01T20:05:31.921Z,17.20
2022-10-01T20:08:00.574Z,17.10
2022-10-01T20:10:56.874Z,17.00
2022-10-01T20:13:46.111Z,17.00
2022-10-01T20:16:27.943Z,17.00
2022-10-01T20:19:19.687Z,17.00
2022-10-01T20:21:48.825Z,16.90
2022-10-01T20:24:22.631Z,16.90
2022-10-01T20:27:05.672Z,16.90
2022-10-01T20:29:52.711Z,16.80
2022-10-01T20:32:27.965Z,16.80
2022-10-01T20:35:20.625Z,16.80
2022-10-01T20:38:06.834Z,16.80
2022-10-01T20:40:51.084Z,16.70
2022-10-01T20:43:34.822Z,16.70
2022-10-01T20:46:19.584Z,16.70
2022-10-01T20:49:04.377Z,16.70
2022-10-01T20:51:45.941Z,16.70
2022-10-01T20:54:22.982Z,16.70
2022-10-01T20:57:10.875Z,16.70
2022-10-01T20:59:42.358Z,16.60
2022-10-01T21:02:24.266Z,16.60
2022-10-01T21:05:01.839Z,16.60
2022-10-01T21:07:41.198Z,16.60
2022-10-01T21:10:22.048Z,16.60
2022-10-01T21:12:59.604Z,16.60
2022-10-01T21:15:38.937Z,16.60
2022-10-01T21:18:26.362Z,16.60
2022-10-01T21:21:21.878Z,16.50
2022-10-01T21:23:48.427Z,16.50
2022-10-01T21:26:39.370Z,16.50
2022-10-01T21:29:50.225Z,16.40
2022-10-01T21:32:48.598Z,16.50
2022-10-01T21:35:27.401Z,16.30
2022-10-01T21:38:10.553Z,16.40
2022-10-01T21:40:49.578Z,16.40
2022-10-01T21:43:45.651Z,16.40
2022-10-01T21:46:39.696Z,16.30
2022-10-01T21:49:36.977Z,16.30
2022-10-01T21:52:27.215Z,16.30
2022-10-01T21:55:03.045Z,16.30
2022-10-01T21:57:38.766Z,16.20
2022-10-01T22:00:24.282Z,16.20
2022-10-01T22:03:22.224Z,16.10
2022-10-01T22:06:19.916Z,16.10
2022-10-01T22:09:07.549Z,16.10
2022-10-01T22:11:39.053Z,16.10
2022-10-01T22:14:16.414Z,16.10
2022-10-01T22:16:55.570Z,16.10
2022-10-01T22:19:35.621Z,16.10
2022-10-01T22:22:08.992Z,16.10
2022-10-01T22:24:49.351Z,16.10
2022-10-01T22:27:37.273Z,16.10
2022-10-01T22:30:11.652Z,16.10
2022-10-01T22:33:42.320Z,16.10
2022-10-01T22:36:11.525Z,16.10
2022-10-01T22:38:56.765Z,16.10
2022-10-01T22:41:27.287Z,16.10
2022-10-01T22:43:57.166Z,16.10
2022-10-01T22:46:57.466Z,16.10
2022-10-01T22:49:44.774Z,16.10
2022-10-01T22:52:42.454Z,16.10
2022-10-01T22:55:28.102Z,16.20
2022-10-01T22:58:27.092Z,16.10
2022-10-01T23:01:18.798Z,16.20
2022-10-01T23:03:45.425Z,16.10
2022-10-01T23:06:52.848Z,16.20
2022-10-01T23:09:44.631Z,16.20
2022-10-01T23:12:19.558Z,16.20
2022-10-01T23:15:13.405Z,16.20
2022-10-01T23:18:01.755Z,16.20
2022-10-01T23:20:53.237Z,16.20
2022-10-01T23:23:33.355Z,16.20
2022-10-01T23:26:16.479Z,16.20
2022-10-01T23:28:50.736Z,16.20
2022-10-01T23:31:36.348Z,16.20
2022-10-01T23:34:46.053Z,16.20
2022-10-01T23:37:18.703Z,16.20
2022-10-01T23:39:58.683Z,16.20
2022-10-01T23:42:49.334Z,16.30
2022-10-01T23:45:30.735Z,16.40
2022-10-01T23:48:08.442Z,16.40
2022-10-01T23:50:54.203Z,16.40
2022-10-01T23:53:34.061Z,16.50
2022-10-01T23:56:27.234Z,16.60
2022-10-01T23:59:21.281Z,16.60
